sensor_id;sensor_type;location;lat;lon;timestamp;pressure;altitude;pressure_sealevel;temperature;humidity
58843;BME280;44614;54.356;10.100;2022-08-21T00:01:11;101391.75;;;14.68;74.13
58843;BME280;44614;54.356;10.100;2022-08-21T00:03:38;101372.47;;;14.50;73.96
58843;BME280;44614;54.356;10.100;2022-08-21T00:06:04;101392.72;;;14.62;74.00
58843;BME280;44614;54.356;10.100;2022-08-21T00:08:29;101400.38;;;14.60;74.32
58843;BME280;44614;54.356;10.100;2022-08-21T00:10:55;101369.41;;;14.39;74.41
58843;BME280;44614;54.356;10.100;2022-08-21T00:13:21;101368.78;;;14.37;74.35
58843;BME280;44614;54.356;10.100;2022-08-21T00:15:48;101399.88;;;14.51;74.53
58843;BME280;44614;54.356;10.100;2022-08-21T00:18:15;101372.03;;;14.34;74.65
58843;BME280;44614;54.356;10.100;2022-08-21T00:20:42;101393.31;;;14.46;74.66
58843;BME280;44614;54.356;10.100;2022-08-21T00:23:08;101387.22;;;14.44;74.70
58843;BME280;44614;54.356;10.100;2022-08-21T00:25:33;101380.47;;;14.39;74.79
58843;BME280;44614;54.356;10.100;2022-08-21T00:27:59;101370.81;;;14.30;74.80
58843;BME280;44614;54.356;10.100;2022-08-21T00:30:26;101381.41;;;14.33;74.88
58843;BME280;44614;54.356;10.100;2022-08-21T00:32:54;101379.09;;;14.30;74.99
58843;BME280;44614;54.356;10.100;2022-08-21T00:35:23;101379.59;;;14.27;74.84
58843;BME280;44614;54.356;10.100;2022-08-21T00:37:49;101380.66;;;14.26;75.05
58843;BME280;44614;54.356;10.100;2022-08-21T00:40:19;101376.66;;;14.22;75.21
58843;BME280;44614;54.356;10.100;2022-08-21T00:42:45;101382.91;;;14.18;75.47
58843;BME280;44614;54.356;10.100;2022-08-21T00:45:11;101376.41;;;14.12;75.59
58843;BME280;44614;54.356;10.100;2022-08-21T00:47:36;101383.22;;;14.09;75.82
58843;BME280;44614;54.356;10.100;2022-08-21T00:50:04;101383.44;;;14.08;75.56
58843;BME280;44614;54.356;10.100;2022-08-21T00:52:32;101390.31;;;14.05;75.49
58843;BME280;44614;54.356;10.100;2022-08-21T00:55:00;101391.38;;;14.04;75.54
58843;BME280;44614;54.356;10.100;2022-08-21T00:57:45;101390.13;;;14.00;75.63
58843;BME280;44614;54.356;10.100;2022-08-21T01:00:15;101390.63;;;13.97;75.61
58843;BME280;44614;54.356;10.100;2022-08-21T01:02:42;101389.16;;;13.95;75.59
58843;BME280;44614;54.356;10.100;2022-08-21T01:05:08;101384.72;;;13.94;75.72
58843;BME280;44614;54.356;10.100;2022-08-21T01:07:34;101397.91;;;13.92;75.70
58843;BME280;44614;54.356;10.100;2022-08-21T01:09:59;101383.50;;;13.89;75.61
58843;BME280;44614;54.356;10.100;2022-08-21T01:12:25;101395.00;;;13.86;75.93
58843;BME280;44614;54.356;10.100;2022-08-21T01:14:51;101389.56;;;13.80;76.11
58843;BME280;44614;54.356;10.100;2022-08-21T01:17:17;101365.56;;;13.62;76.19
58843;BME280;44614;54.356;10.100;2022-08-21T01:19:43;101398.91;;;13.79;76.09
58843;BME280;44614;54.356;10.100;2022-08-21T01:22:08;101390.00;;;13.77;76.29
58843;BME280;44614;54.356;10.100;2022-08-21T01:24:34;101394.31;;;13.73;76.35
58843;BME280;44614;54.356;10.100;2022-08-21T01:27:00;101388.19;;;13.71;76.51
58843;BME280;44614;54.356;10.100;2022-08-21T01:29:43;101392.25;;;13.68;76.18
58843;BME280;44614;54.356;10.100;2022-08-21T01:32:13;101408.22;;;13.66;76.28
58843;BME280;44614;54.356;10.100;2022-08-21T01:34:41;101396.53;;;13.64;76.51
58843;BME280;44614;54.356;10.100;2022-08-21T01:37:07;101395.06;;;13.61;76.44
58843;BME280;44614;54.356;10.100;2022-08-21T01:39:34;101398.06;;;13.60;76.61
58843;BME280;44614;54.356;10.100;2022-08-21T01:41:59;101394.69;;;13.58;76.50
58843;BME280;44614;54.356;10.100;2022-08-21T01:44:25;101367.31;;;13.38;76.52
58843;BME280;44614;54.356;10.100;2022-08-21T01:46:52;101390.31;;;13.50;76.43
58843;BME280;44614;54.356;10.100;2022-08-21T01:49:18;101393.94;;;13.51;76.72
58843;BME280;44614;54.356;10.100;2022-08-21T01:51:44;101390.56;;;13.49;76.82
58843;BME280;44614;54.356;10.100;2022-08-21T01:54:10;101396.31;;;13.47;76.87
58843;BME280;44614;54.356;10.100;2022-08-21T01:56:45;101390.16;;;13.45;76.79
58843;BME280;44614;54.356;10.100;2022-08-21T01:59:11;101387.88;;;13.42;77.15
58843;BME280;44614;54.356;10.100;2022-08-21T02:01:36;101389.19;;;13.39;77.14
58843;BME280;44614;54.356;10.100;2022-08-21T02:04:04;101393.00;;;13.38;77.28
58843;BME280;44614;54.356;10.100;2022-08-21T02:06:30;101387.09;;;13.35;77.11
58843;BME280;44614;54.356;10.100;2022-08-21T02:08:55;101388.63;;;13.31;77.16
58843;BME280;44614;54.356;10.100;2022-08-21T02:11:21;101389.47;;;13.31;77.58
58843;BME280;44614;54.356;10.100;2022-08-21T02:13:46;101388.03;;;13.29;77.16
58843;BME280;44614;54.356;10.100;2022-08-21T02:16:12;101380.44;;;13.24;77.18
58843;BME280;44614;54.356;10.100;2022-08-21T02:18:37;101387.38;;;13.27;77.40
58843;BME280;44614;54.356;10.100;2022-08-21T02:21:04;101382.59;;;13.15;77.62
58843;BME280;44614;54.356;10.100;2022-08-21T02:23:31;101348.56;;;13.03;77.41
58843;BME280;44614;54.356;10.100;2022-08-21T02:25:57;101386.81;;;13.18;79.13
58843;BME280;44614;54.356;10.100;2022-08-21T02:28:24;101392.78;;;13.15;78.45
58843;BME280;44614;54.356;10.100;2022-08-21T02:30:50;101387.50;;;13.13;77.94
58843;BME280;44614;54.356;10.100;2022-08-21T02:33:16;101389.63;;;13.11;77.85
58843;BME280;44614;54.356;10.100;2022-08-21T02:35:43;101392.00;;;13.08;77.80
58843;BME280;44614;54.356;10.100;2022-08-21T02:38:13;101386.47;;;13.08;77.61
58843;BME280;44614;54.356;10.100;2022-08-21T02:40:41;101391.41;;;13.06;77.65
58843;BME280;44614;54.356;10.100;2022-08-21T02:43:07;101375.06;;;13.04;77.59
58843;BME280;44614;54.356;10.100;2022-08-21T02:45:34;101383.34;;;13.04;77.86
58843;BME280;44614;54.356;10.100;2022-08-21T02:48:04;101379.97;;;13.02;77.60
58843;BME280;44614;54.356;10.100;2022-08-21T02:50:39;101370.69;;;12.97;77.70
58843;BME280;44614;54.356;10.100;2022-08-21T02:53:06;101384.69;;;12.95;78.05
58843;BME280;44614;54.356;10.100;2022-08-21T02:55:32;101385.59;;;12.89;79.95
58843;BME280;44614;54.356;10.100;2022-08-21T02:57:59;101386.66;;;12.88;79.30
58843;BME280;44614;54.356;10.100;2022-08-21T03:00:26;101383.31;;;12.86;79.03
58843;BME280;44614;54.356;10.100;2022-08-21T03:02:53;101382.44;;;12.85;78.80
58843;BME280;44614;54.356;10.100;2022-08-21T03:05:20;101381.38;;;12.86;78.70
58843;BME280;44614;54.356;10.100;2022-08-21T03:07:47;101377.78;;;12.86;78.58
58843;BME280;44614;54.356;10.100;2022-08-21T03:10:13;101379.69;;;12.85;78.68
58843;BME280;44614;54.356;10.100;2022-08-21T03:12:38;101385.19;;;12.85;78.56
58843;BME280;44614;54.356;10.100;2022-08-21T03:15:07;101375.25;;;12.84;78.48
58843;BME280;44614;54.356;10.100;2022-08-21T03:17:33;101379.06;;;12.83;78.60
58843;BME280;44614;54.356;10.100;2022-08-21T03:19:59;101366.38;;;12.82;78.85
58843;BME280;44614;54.356;10.100;2022-08-21T03:22:26;101370.19;;;12.81;78.94
58843;BME280;44614;54.356;10.100;2022-08-21T03:24:51;101344.72;;;12.61;79.00
58843;BME280;44614;54.356;10.100;2022-08-21T03:27:17;101360.06;;;12.75;79.31
58843;BME280;44614;54.356;10.100;2022-08-21T03:29:42;101368.34;;;12.75;79.31
58843;BME280;44614;54.356;10.100;2022-08-21T03:32:07;101358.03;;;12.64;79.44
58843;BME280;44614;54.356;10.100;2022-08-21T03:34:36;101375.75;;;12.75;78.91
58843;BME280;44614;54.356;10.100;2022-08-21T03:37:03;101369.38;;;12.74;78.88
58843;BME280;44614;54.356;10.100;2022-08-21T03:39:28;101367.50;;;12.75;79.24
58843;BME280;44614;54.356;10.100;2022-08-21T03:41:54;101366.03;;;12.72;79.18
58843;BME280;44614;54.356;10.100;2022-08-21T03:44:19;101370.69;;;12.72;79.26
58843;BME280;44614;54.356;10.100;2022-08-21T03:46:45;101355.25;;;12.71;79.39
58843;BME280;44614;54.356;10.100;2022-08-21T03:49:10;101360.13;;;12.68;79.26
58843;BME280;44614;54.356;10.100;2022-08-21T03:51:35;101306.63;;;12.26;80.00
58843;BME280;44614;54.356;10.100;2022-08-21T03:54:01;101351.44;;;12.65;79.47
58843;BME280;44614;54.356;10.100;2022-08-21T03:56:26;101336.94;;;12.51;79.77
58843;BME280;44614;54.356;10.100;2022-08-21T03:58:52;101359.31;;;12.61;79.75
58843;BME280;44614;54.356;10.100;2022-08-21T04:01:17;101353.41;;;12.58;80.03
58843;BME280;44614;54.356;10.100;2022-08-21T04:03:43;101367.81;;;12.60;79.91
58843;BME280;44614;54.356;10.100;2022-08-21T04:06:08;101362.31;;;12.60;80.19
58843;BME280;44614;54.356;10.100;2022-08-21T04:08:34;101368.66;;;12.60;80.22
58843;BME280;44614;54.356;10.100;2022-08-21T04:11:00;101363.16;;;12.60;79.91
58843;BME280;44614;54.356;10.100;2022-08-21T04:13:26;101369.50;;;12.61;80.14
58843;BME280;44614;54.356;10.100;2022-08-21T04:15:53;101364.00;;;12.61;80.11
58843;BME280;44614;54.356;10.100;2022-08-21T04:18:18;101362.53;;;12.58;80.17
58843;BME280;44614;54.356;10.100;2022-08-21T04:20:46;101364.84;;;12.61;80.00
58843;BME280;44614;54.356;10.100;2022-08-21T04:23:12;101365.66;;;12.62;80.19
58843;BME280;44614;54.356;10.100;2022-08-21T04:25:38;101360.16;;;12.62;80.19
58843;BME280;44614;54.356;10.100;2022-08-21T04:28:03;101356.81;;;12.60;80.18
58843;BME280;44614;54.356;10.100;2022-08-21T04:30:29;101360.16;;;12.62;80.25
58843;BME280;44614;54.356;10.100;2022-08-21T04:32:55;101361.84;;;12.63;80.30
58843;BME280;44614;54.356;10.100;2022-08-21T04:35:22;101358.88;;;12.64;80.13
58843;BME280;44614;54.356;10.100;2022-08-21T04:37:48;101374.56;;;12.64;81.77
58843;BME280;44614;54.356;10.100;2022-08-21T04:40:16;101364.59;;;12.63;80.97
58843;BME280;44614;54.356;10.100;2022-08-21T04:42:54;101370.09;;;12.63;80.67
58843;BME280;44614;54.356;10.100;2022-08-21T04:45:28;101342.91;;;12.48;80.55
58843;BME280;44614;54.356;10.100;2022-08-21T04:47:57;101366.91;;;12.66;80.76
58843;BME280;44614;54.356;10.100;2022-08-21T04:50:28;101345.81;;;12.53;80.90
58843;BME280;44614;54.356;10.100;2022-08-21T04:52:55;101370.06;;;12.69;81.24
58843;BME280;44614;54.356;10.100;2022-08-21T04:55:21;101374.28;;;12.72;81.17
58843;BME280;44614;54.356;10.100;2022-08-21T04:57:48;101373.22;;;12.73;81.41
58843;BME280;44614;54.356;10.100;2022-08-21T05:00:16;101375.28;;;12.78;81.33
58843;BME280;44614;54.356;10.100;2022-08-21T05:02:43;101378.69;;;12.80;81.30
58843;BME280;44614;54.356;10.100;2022-08-21T05:05:09;101377.41;;;12.82;81.52
58843;BME280;44614;54.356;10.100;2022-08-21T05:07:35;101374.41;;;12.84;81.88
58843;BME280;44614;54.356;10.100;2022-08-21T05:10:03;101378.84;;;12.85;82.10
58843;BME280;44614;54.356;10.100;2022-08-21T05:12:30;101379.88;;;12.90;81.91
58843;BME280;44614;54.356;10.100;2022-08-21T05:14:56;101366.56;;;12.81;82.00
58843;BME280;44614;54.356;10.100;2022-08-21T05:17:21;101376.19;;;12.97;82.06
58843;BME280;44614;54.356;10.100;2022-08-21T05:19:46;101374.66;;;13.01;82.19
58843;BME280;44614;54.356;10.100;2022-08-21T05:22:19;101381.41;;;13.05;82.34
58843;BME280;44614;54.356;10.100;2022-08-21T05:24:44;101366.56;;;13.06;82.19
58843;BME280;44614;54.356;10.100;2022-08-21T05:27:09;101369.25;;;13.12;82.45
58843;BME280;44614;54.356;10.100;2022-08-21T05:29:34;101379.63;;;13.17;82.58
58843;BME280;44614;54.356;10.100;2022-08-21T05:32:00;101377.84;;;13.23;82.80
58843;BME280;44614;54.356;10.100;2022-08-21T05:34:25;101381.19;;;13.31;82.71
58843;BME280;44614;54.356;10.100;2022-08-21T05:36:51;101387.03;;;13.41;82.83
58843;BME280;44614;54.356;10.100;2022-08-21T05:39:16;101343.06;;;13.28;82.54
58843;BME280;44614;54.356;10.100;2022-08-21T05:41:42;101374.91;;;13.61;82.41
58843;BME280;44614;54.356;10.100;2022-08-21T05:44:07;101384.09;;;13.73;82.52
58843;BME280;44614;54.356;10.100;2022-08-21T05:46:32;101353.59;;;13.68;82.56
58843;BME280;44614;54.356;10.100;2022-08-21T05:48:58;101357.66;;;13.84;82.44
58843;BME280;44614;54.356;10.100;2022-08-21T05:51:23;101382.59;;;14.07;82.96
58843;BME280;44614;54.356;10.100;2022-08-21T05:53:49;101385.41;;;14.19;82.50
58843;BME280;44614;54.356;10.100;2022-08-21T05:56:15;101371.31;;;14.27;82.59
58843;BME280;44614;54.356;10.100;2022-08-21T05:58:40;101379.25;;;14.35;82.61
58843;BME280;44614;54.356;10.100;2022-08-21T06:01:06;101376.28;;;14.49;82.43
58843;BME280;44614;54.356;10.100;2022-08-21T06:03:33;101374.19;;;14.62;83.48
58843;BME280;44614;54.356;10.100;2022-08-21T06:06:00;101363.63;;;14.71;82.13
58843;BME280;44614;54.356;10.100;2022-08-21T06:08:26;101371.47;;;14.86;81.52
58843;BME280;44614;54.356;10.100;2022-08-21T06:10:53;101361.03;;;15.00;81.39
58843;BME280;44614;54.356;10.100;2022-08-21T06:13:19;101372.44;;;15.15;82.73
58843;BME280;44614;54.356;10.100;2022-08-21T06:15:44;101372.94;;;15.24;81.37
58843;BME280;44614;54.356;10.100;2022-08-21T06:18:11;101364.13;;;15.39;80.89
58843;BME280;44614;54.356;10.100;2022-08-21T06:20:37;101363.38;;;15.55;80.14
58843;BME280;44614;54.356;10.100;2022-08-21T06:23:02;101365.19;;;15.73;79.68
58843;BME280;44614;54.356;10.100;2022-08-21T06:25:28;101358.03;;;15.89;79.48
58843;BME280;44614;54.356;10.100;2022-08-21T06:28:01;101356.16;;;16.06;78.92
58843;BME280;44614;54.356;10.100;2022-08-21T06:30:26;101358.97;;;16.23;78.64
58843;BME280;44614;54.356;10.100;2022-08-21T06:32:52;101353.94;;;16.37;78.17
58843;BME280;44614;54.356;10.100;2022-08-21T06:35:17;101354.84;;;16.54;78.03
58843;BME280;44614;54.356;10.100;2022-08-21T06:37:43;101354.59;;;16.72;77.78
58843;BME280;44614;54.356;10.100;2022-08-21T06:40:08;101361.59;;;16.92;77.23
58843;BME280;44614;54.356;10.100;2022-08-21T06:42:34;101355.19;;;17.08;76.83
58843;BME280;44614;54.356;10.100;2022-08-21T06:44:59;101333.81;;;17.25;76.55
58843;BME280;44614;54.356;10.100;2022-08-21T06:47:25;101350.75;;;17.46;75.86
58843;BME280;44614;54.356;10.100;2022-08-21T06:49:50;101351.22;;;17.60;75.13
58843;BME280;44614;54.356;10.100;2022-08-21T06:52:16;101346.72;;;17.75;74.92
58843;BME280;44614;54.356;10.100;2022-08-21T06:54:41;101343.94;;;17.97;74.68
58843;BME280;44614;54.356;10.100;2022-08-21T06:57:07;101323.91;;;17.95;74.06
58843;BME280;44614;54.356;10.100;2022-08-21T06:59:32;101340.38;;;18.29;73.25
58843;BME280;44614;54.356;10.100;2022-08-21T07:01:59;101346.94;;;18.45;73.13
58843;BME280;44614;54.356;10.100;2022-08-21T07:04:24;101342.94;;;18.63;70.96
58843;BME280;44614;54.356;10.100;2022-08-21T07:06:50;101248.59;;;17.97;72.19
58843;BME280;44614;54.356;10.100;2022-08-21T07:09:15;101334.88;;;18.98;71.75
58843;BME280;44614;54.356;10.100;2022-08-21T07:11:41;101336.13;;;19.13;70.97
58843;BME280;44614;54.356;10.100;2022-08-21T07:14:06;101325.63;;;19.30;70.98
58843;BME280;44614;54.356;10.100;2022-08-21T07:16:31;101337.44;;;19.47;70.20
58843;BME280;44614;54.356;10.100;2022-08-21T07:18:57;101330.84;;;19.64;69.77
58843;BME280;44614;54.356;10.100;2022-08-21T07:21:22;101333.44;;;19.81;69.19
58843;BME280;44614;54.356;10.100;2022-08-21T07:23:49;101331.22;;;19.88;68.59
58843;BME280;44614;54.356;10.100;2022-08-21T07:26:18;101332.38;;;19.97;68.22
58843;BME280;44614;54.356;10.100;2022-08-21T07:28:44;101329.03;;;20.10;68.00
58843;BME280;44614;54.356;10.100;2022-08-21T07:31:10;101326.84;;;20.33;65.13
58843;BME280;44614;54.356;10.100;2022-08-21T07:33:39;101328.28;;;20.35;66.11
58843;BME280;44614;54.356;10.100;2022-08-21T07:36:05;101324.06;;;20.33;64.65
58843;BME280;44614;54.356;10.100;2022-08-21T07:38:30;101323.25;;;20.42;64.95
58843;BME280;44614;54.356;10.100;2022-08-21T07:40:57;101322.75;;;20.66;65.25
58843;BME280;44614;54.356;10.100;2022-08-21T07:43:25;101311.59;;;20.76;64.20
58843;BME280;44614;54.356;10.100;2022-08-21T07:45:51;101314.06;;;20.93;62.60
58843;BME280;44614;54.356;10.100;2022-08-21T07:48:16;101310.44;;;20.98;62.76
58843;BME280;44614;54.356;10.100;2022-08-21T07:50:42;101304.28;;;21.11;62.71
58843;BME280;44614;54.356;10.100;2022-08-21T07:53:08;101307.59;;;21.38;62.19
58843;BME280;44614;54.356;10.100;2022-08-21T07:55:33;101311.38;;;21.63;61.94
58843;BME280;44614;54.356;10.100;2022-08-21T07:57:59;101292.09;;;21.66;60.84
58843;BME280;44614;54.356;10.100;2022-08-21T08:00:26;101303.28;;;21.72;60.89
58843;BME280;44614;54.356;10.100;2022-08-21T08:02:53;101312.19;;;21.74;60.89
58843;BME280;44614;54.356;10.100;2022-08-21T08:05:23;101306.25;;;21.90;61.11
58843;BME280;44614;54.356;10.100;2022-08-21T08:07:49;101310.66;;;22.02;60.74
58843;BME280;44614;54.356;10.100;2022-08-21T08:10:15;101311.44;;;22.18;60.04
58843;BME280;44614;54.356;10.100;2022-08-21T08:12:42;101295.06;;;22.35;59.92
58843;BME280;44614;54.356;10.100;2022-08-21T08:15:13;101305.63;;;22.43;58.99
58843;BME280;44614;54.356;10.100;2022-08-21T08:17:39;101299.50;;;22.41;59.48
58843;BME280;44614;54.356;10.100;2022-08-21T08:20:06;101306.69;;;22.52;58.70
58843;BME280;44614;54.356;10.100;2022-08-21T08:22:34;101303.47;;;22.69;59.25
58843;BME280;44614;54.356;10.100;2022-08-21T08:25:00;101300.53;;;22.84;58.05
58843;BME280;44614;54.356;10.100;2022-08-21T08:27:25;101288.97;;;22.96;57.89
58843;BME280;44614;54.356;10.100;2022-08-21T08:29:51;101246.16;;;22.91;56.91
58843;BME280;44614;54.356;10.100;2022-08-21T08:32:16;101283.75;;;23.14;57.01
58843;BME280;44614;54.356;10.100;2022-08-21T08:34:42;101291.59;;;23.11;49.21
58843;BME280;44614;54.356;10.100;2022-08-21T08:37:09;101279.63;;;23.06;58.01
58843;BME280;44614;54.356;10.100;2022-08-21T08:39:35;101290.91;;;23.25;57.47
58843;BME280;44614;54.356;10.100;2022-08-21T08:42:12;101300.88;;;23.36;56.49
58843;BME280;44614;54.356;10.100;2022-08-21T08:44:41;101285.66;;;23.42;57.10
58843;BME280;44614;54.356;10.100;2022-08-21T08:47:09;101297.94;;;23.46;57.01
58843;BME280;44614;54.356;10.100;2022-08-21T08:49:40;101285.41;;;23.39;56.50
58843;BME280;44614;54.356;10.100;2022-08-21T08:52:23;101277.06;;;23.33;56.98
58843;BME280;44614;54.356;10.100;2022-08-21T08:55:09;101280.03;;;23.42;55.13
58843;BME280;44614;54.356;10.100;2022-08-21T08:57:37;101266.47;;;23.54;56.51
58843;BME280;44614;54.356;10.100;2022-08-21T09:00:09;101259.38;;;23.81;56.14
58843;BME280;44614;54.356;10.100;2022-08-21T09:02:42;101262.72;;;24.02;55.56
58843;BME280;44614;54.356;10.100;2022-08-21T09:05:19;101265.16;;;24.27;55.12
58843;BME280;44614;54.356;10.100;2022-08-21T09:10:53;101261.75;;;24.63;51.75
58843;BME280;44614;54.356;10.100;2022-08-21T09:13:44;101245.78;;;24.45;53.61
58843;BME280;44614;54.356;10.100;2022-08-21T09:16:28;101253.38;;;24.44;51.39
58843;BME280;44614;54.356;10.100;2022-08-21T09:19:08;101260.19;;;24.38;52.83
58843;BME280;44614;54.356;10.100;2022-08-21T09:21:50;101251.25;;;24.36;52.53
58843;BME280;44614;54.356;10.100;2022-08-21T09:27:10;101253.72;;;24.56;53.58
58843;BME280;44614;54.356;10.100;2022-08-21T09:29:46;101253.50;;;24.53;53.81
58843;BME280;44614;54.356;10.100;2022-08-21T09:32:20;101242.66;;;24.65;53.29
58843;BME280;44614;54.356;10.100;2022-08-21T09:35:13;101257.47;;;24.98;51.02
58843;BME280;44614;54.356;10.100;2022-08-21T09:43:19;101253.88;;;24.79;50.94
58843;BME280;44614;54.356;10.100;2022-08-21T09:45:47;101244.25;;;24.85;52.49
58843;BME280;44614;54.356;10.100;2022-08-21T09:48:17;101252.06;;;24.88;52.08
58843;BME280;44614;54.356;10.100;2022-08-21T09:50:43;101249.63;;;24.82;52.03
58843;BME280;44614;54.356;10.100;2022-08-21T09:53:19;101180.50;;;24.39;49.80
58843;BME280;44614;54.356;10.100;2022-08-21T09:55:55;101241.72;;;24.70;51.75
58843;BME280;44614;54.356;10.100;2022-08-21T09:58:42;101241.09;;;24.87;51.35
58843;BME280;44614;54.356;10.100;2022-08-21T10:01:18;101238.63;;;24.99;51.49
58843;BME280;44614;54.356;10.100;2022-08-21T10:03:44;101246.47;;;25.29;51.15
58843;BME280;44614;54.356;10.100;2022-08-21T10:06:10;101229.31;;;25.17;46.23
58843;BME280;44614;54.356;10.100;2022-08-21T10:08:38;101239.59;;;25.36;50.81
58843;BME280;44614;54.356;10.100;2022-08-21T10:11:09;101225.56;;;25.49;50.40
58843;BME280;44614;54.356;10.100;2022-08-21T10:19:14;101231.66;;;25.79;48.37
58843;BME280;44614;54.356;10.100;2022-08-21T10:24:52;101228.03;;;26.01;48.97
58843;BME280;44614;54.356;10.100;2022-08-21T10:27:35;101228.50;;;26.17;49.28
58843;BME280;44614;54.356;10.100;2022-08-21T10:30:12;101230.44;;;26.08;48.57
58843;BME280;44614;54.356;10.100;2022-08-21T10:35:17;101227.28;;;25.73;49.75
58843;BME280;44614;54.356;10.100;2022-08-21T10:46:06;101233.41;;;25.75;47.76
58843;BME280;44614;54.356;10.100;2022-08-21T10:56:28;101229.38;;;25.81;46.67
58843;BME280;44614;54.356;10.100;2022-08-21T11:01:52;101232.00;;;25.50;46.41
58843;BME280;44614;54.356;10.100;2022-08-21T11:12:53;101234.47;;;25.79;45.32
58843;BME280;44614;54.356;10.100;2022-08-21T11:15:33;101238.16;;;26.02;44.33
58843;BME280;44614;54.356;10.100;2022-08-21T11:18:25;101236.56;;;26.10;44.77
58843;BME280;44614;54.356;10.100;2022-08-21T11:21:02;101227.47;;;26.13;37.17
58843;BME280;44614;54.356;10.100;2022-08-21T11:23:52;101227.28;;;26.09;42.07
58843;BME280;44614;54.356;10.100;2022-08-21T11:26:36;101228.88;;;26.24;40.98
58843;BME280;44614;54.356;10.100;2022-08-21T11:29:16;101209.81;;;26.21;41.92
58843;BME280;44614;54.356;10.100;2022-08-21T11:34:42;101233.56;;;26.29;36.82
58843;BME280;44614;54.356;10.100;2022-08-21T11:45:54;101214.13;;;26.18;41.56
58843;BME280;44614;54.356;10.100;2022-08-21T11:50:52;101206.81;;;26.40;40.39
58843;BME280;44614;54.356;10.100;2022-08-21T11:53:36;101223.22;;;26.38;39.78
58843;BME280;44614;54.356;10.100;2022-08-21T11:56:09;101233.44;;;26.34;41.41
58843;BME280;44614;54.356;10.100;2022-08-21T11:59:00;101222.31;;;26.82;40.44
58843;BME280;44614;54.356;10.100;2022-08-21T12:01:34;101215.56;;;27.23;39.76
58843;BME280;44614;54.356;10.100;2022-08-21T12:04:08;101217.28;;;27.33;39.34
58843;BME280;44614;54.356;10.100;2022-08-21T12:06:38;101225.75;;;27.41;39.60
58843;BME280;44614;54.356;10.100;2022-08-21T12:09:08;101136.94;;;26.73;38.54
58843;BME280;44614;54.356;10.100;2022-08-21T12:11:50;101216.94;;;27.34;37.50
58843;BME280;44614;54.356;10.100;2022-08-21T12:14:17;101223.16;;;27.71;39.35
58843;BME280;44614;54.356;10.100;2022-08-21T12:16:46;101218.88;;;28.08;38.98
58843;BME280;44614;54.356;10.100;2022-08-21T12:19:31;101217.38;;;27.85;34.88
58843;BME280;44614;54.356;10.100;2022-08-21T12:27:27;101199.13;;;28.17;37.23
58843;BME280;44614;54.356;10.100;2022-08-21T12:30:00;101210.34;;;28.69;37.89
58843;BME280;44614;54.356;10.100;2022-08-21T12:35:16;101223.53;;;28.48;34.30
58843;BME280;44614;54.356;10.100;2022-08-21T12:37:46;101214.06;;;28.00;40.25
58843;BME280;44614;54.356;10.100;2022-08-21T12:40:23;101217.88;;;28.48;39.20
58843;BME280;44614;54.356;10.100;2022-08-21T12:42:50;101222.34;;;28.31;33.41
58843;BME280;44614;54.356;10.100;2022-08-21T12:45:23;101210.03;;;28.62;39.42
58843;BME280;44614;54.356;10.100;2022-08-21T12:47:59;101127.91;;;28.67;38.38
58843;BME280;44614;54.356;10.100;2022-08-21T12:50:51;101201.94;;;29.67;35.39
58843;BME280;44614;54.356;10.100;2022-08-21T12:55:45;101210.63;;;29.53;37.11
58843;BME280;44614;54.356;10.100;2022-08-21T12:58:21;101207.34;;;29.51;36.17
58843;BME280;44614;54.356;10.100;2022-08-21T13:00:50;101200.22;;;29.45;37.29
58843;BME280;44614;54.356;10.100;2022-08-21T13:03:17;101201.03;;;29.96;36.63
58843;BME280;44614;54.356;10.100;2022-08-21T13:05:43;101202.13;;;30.24;35.81
58843;BME280;44614;54.356;10.100;2022-08-21T13:08:11;101120.34;;;30.02;35.20
58843;BME280;44614;54.356;10.100;2022-08-21T13:10:39;101194.72;;;30.65;34.71
58843;BME280;44614;54.356;10.100;2022-08-21T13:13:08;101204.63;;;30.71;34.90
58843;BME280;44614;54.356;10.100;2022-08-21T13:15:36;101195.22;;;30.34;35.27
58843;BME280;44614;54.356;10.100;2022-08-21T13:18:03;101193.00;;;29.98;35.73
58843;BME280;44614;54.356;10.100;2022-08-21T13:20:32;101192.22;;;29.47;36.73
58843;BME280;44614;54.356;10.100;2022-08-21T13:23:00;101206.13;;;28.93;37.51
58843;BME280;44614;54.356;10.100;2022-08-21T13:25:29;101203.69;;;29.50;36.80
58843;BME280;44614;54.356;10.100;2022-08-21T13:28:06;101197.78;;;30.06;35.52
58843;BME280;44614;54.356;10.100;2022-08-21T13:30:32;101200.13;;;30.04;35.95
58843;BME280;44614;54.356;10.100;2022-08-21T13:33:00;101204.91;;;29.70;36.74
58843;BME280;44614;54.356;10.100;2022-08-21T13:35:51;101199.25;;;29.70;36.04
58843;BME280;44614;54.356;10.100;2022-08-21T13:38:19;101203.09;;;29.36;37.20
58843;BME280;44614;54.356;10.100;2022-08-21T13:40:49;101187.81;;;28.99;37.93
58843;BME280;44614;54.356;10.100;2022-08-21T13:43:19;101198.34;;;28.72;38.52
58843;BME280;44614;54.356;10.100;2022-08-21T13:45:49;101205.63;;;28.90;38.13
58843;BME280;44614;54.356;10.100;2022-08-21T13:48:15;101195.56;;;29.19;37.42
58843;BME280;44614;54.356;10.100;2022-08-21T13:50:42;101192.31;;;29.59;37.08
58843;BME280;44614;54.356;10.100;2022-08-21T13:53:30;101112.13;;;28.96;35.93
58843;BME280;44614;54.356;10.100;2022-08-21T13:55:57;101199.47;;;29.56;36.77
58843;BME280;44614;54.356;10.100;2022-08-21T13:58:48;101193.66;;;29.53;36.53
58843;BME280;44614;54.356;10.100;2022-08-21T14:01:49;101200.97;;;29.62;36.21
58843;BME280;44614;54.356;10.100;2022-08-21T14:04:24;101198.56;;;29.73;36.37